Time;durP1;ratioP1;P1;durP2;ratioP2;P2;SDS_P1;SDS_P2;PMS_P1;PMS_P2;Temp;Humidity;BMP_temperature;BMP_pressure;BME280_temperature;BME280_humidity;BME280_pressure;Samples;Min_cycle;Max_cycle;Signal;HPM_P1;HPM_P2
2021/04/04 00:01:24;;;;;;;10.67;4.90;;;3.10;99.90;;;;;;5058989;28;20032;-81
2021/04/04 00:03:50;;;;;;;11.23;4.70;;;3.10;99.90;;;;;;5074828;28;20060;-80
2021/04/04 00:06:16;;;;;;;9.10;4.93;;;3.10;99.90;;;;;;5067575;28;20025;-79
2021/04/04 00:08:41;;;;;;;9.57;4.70;;;3.10;99.90;;;;;;5056989;28;20471;-81
2021/04/04 00:11:08;;;;;;;12.03;5.00;;;3.00;99.90;;;;;;5065160;28;20040;-81
2021/04/04 00:13:34;;;;;;;10.00;4.77;;;2.90;99.90;;;;;;5073817;28;20392;-79
2021/04/04 00:16:00;;;;;;;10.87;5.03;;;2.80;99.90;;;;;;5061589;28;20151;-80
2021/04/04 00:18:26;;;;;;;10.03;4.60;;;2.80;99.90;;;;;;5055716;28;20471;-81
2021/04/04 00:20:51;;;;;;;11.03;4.43;;;2.80;99.90;;;;;;5066951;28;20036;-80
2021/04/04 00:23:17;;;;;;;8.67;4.37;;;2.80;99.90;;;;;;5068922;28;20043;-79
2021/04/04 00:25:43;;;;;;;10.77;5.07;;;2.80;99.90;;;;;;5066993;28;20020;-80
2021/04/04 00:28:09;;;;;;;8.73;4.40;;;2.70;99.90;;;;;;5056136;28;20037;-81
2021/04/04 00:30:35;;;;;;;8.67;4.20;;;2.70;99.90;;;;;;5064466;28;20051;-80
2021/04/04 00:33:00;;;;;;;9.37;4.70;;;2.70;99.90;;;;;;5064561;28;20036;-79
2021/04/04 00:35:26;;;;;;;10.60;5.17;;;2.70;99.90;;;;;;5056855;28;20464;-81
2021/04/04 00:37:53;;;;;;;11.10;4.97;;;2.70;99.90;;;;;;5060742;28;20032;-80
2021/04/04 00:40:28;;;;;;;13.70;5.07;;;2.70;99.90;;;;;;5062375;28;20114;-79
2021/04/04 00:42:54;;;;;;;8.70;4.50;;;2.60;99.90;;;;;;5060708;28;20037;-80
2021/04/04 00:45:25;;;;;;;11.30;4.60;;;2.50;99.90;;;;;;5065935;28;20112;-80
2021/04/04 00:47:52;;;;;;;8.87;4.80;;;2.40;99.90;;;;;;5059416;28;20228;-79
2021/04/04 00:50:21;;;;;;;8.70;4.60;;;2.40;99.90;;;;;;5068371;28;20059;-80
2021/04/04 00:52:47;;;;;;;11.55;5.25;;;2.30;99.90;;;;;;5058423;28;20396;-80
2021/04/04 00:55:15;;;;;;;9.07;4.90;;;2.20;99.90;;;;;;5065085;28;20048;-80
2021/04/04 00:57:42;;;;;;;11.67;5.13;;;2.10;99.90;;;;;;5068096;28;20071;-81
2021/04/04 01:00:11;;;;;;;10.80;4.80;;;2.20;99.90;;;;;;5066910;28;20023;-80
2021/04/04 01:02:37;;;;;;;9.40;4.60;;;2.10;99.90;;;;;;5067250;28;20040;-80
2021/04/04 01:05:05;;;;;;;12.10;4.63;;;2.10;99.90;;;;;;5056985;28;20758;-80
2021/04/04 01:07:33;;;;;;;9.97;5.10;;;2.00;99.90;;;;;;5055625;28;20025;-80
2021/04/04 01:10:00;;;;;;;10.30;4.70;;;2.00;99.90;;;;;;5066516;28;20028;-79
2021/04/04 01:12:47;;;;;;;11.17;4.50;;;2.00;99.90;;;;;;5059236;28;20112;-79
2021/04/04 01:15:15;;;;;;;11.30;5.60;;;2.00;99.90;;;;;;5062562;28;20036;-79
2021/04/04 01:17:45;;;;;;;9.53;5.10;;;2.00;99.90;;;;;;5050355;28;20579;-80
2021/04/04 01:20:18;;;;;;;9.88;4.88;;;2.00;99.90;;;;;;5065517;28;20111;-80
2021/04/04 01:22:59;;;;;;;10.40;4.80;;;2.00;99.90;;;;;;5052765;28;20044;-78
2021/04/04 01:25:38;;;;;;;9.17;4.90;;;2.10;99.90;;;;;;5065829;28;20025;-80
2021/04/04 01:28:16;;;;;;;9.05;4.68;;;2.00;99.90;;;;;;5056322;28;20031;-80
2021/04/04 01:30:44;;;;;;;10.23;4.97;;;1.90;99.90;;;;;;5050138;28;20397;-81
2021/04/04 01:33:12;;;;;;;9.20;5.30;;;1.90;99.90;;;;;;5061369;28;20033;-81
2021/04/04 01:36:02;;;;;;;9.27;4.33;;;1.90;99.90;;;;;;5058175;28;20032;-80
2021/04/04 01:38:31;;;;;;;10.47;4.90;;;1.80;99.90;;;;;;5061640;28;20468;-80
2021/04/04 01:41:04;;;;;;;11.33;5.17;;;1.70;99.90;;;;;;5067913;28;20031;-81
2021/04/04 01:43:31;;;;;;;14.90;5.37;;;1.70;99.90;;;;;;5059101;28;20437;-80
2021/04/04 01:45:59;;;;;;;9.70;4.77;;;1.60;99.90;;;;;;5061136;28;20387;-79
2021/04/04 01:48:25;;;;;;;10.70;4.80;;;1.50;99.90;;;;;;5059608;28;20040;-80
2021/04/04 01:50:52;;;;;;;11.30;5.37;;;1.50;99.90;;;;;;5058523;28;20314;-81
2021/04/04 01:53:18;;;;;;;10.50;4.90;;;1.40;99.90;;;;;;5064410;28;20543;-81
2021/04/04 01:55:47;;;;;;;11.43;5.37;;;1.50;99.90;;;;;;5060495;28;20116;-81
2021/04/04 01:58:13;;;;;;;10.47;5.10;;;1.50;99.90;;;;;;5066228;28;20032;-80
2021/04/04 02:00:40;;;;;;;10.90;5.03;;;1.40;99.90;;;;;;5061560;28;20368;-81
2021/04/04 02:03:07;;;;;;;14.40;6.07;;;1.40;99.90;;;;;;5056594;28;20043;-80
2021/04/04 02:05:34;;;;;;;11.97;5.37;;;1.40;99.90;;;;;;5061287;28;20040;-79
2021/04/04 02:08:01;;;;;;;13.47;5.37;;;1.40;99.90;;;;;;5068661;28;20039;-80
2021/04/04 02:10:29;;;;;;;11.30;5.23;;;1.40;99.90;;;;;;5065516;28;20031;-80
2021/04/04 02:13:00;;;;;;;9.43;5.03;;;1.30;99.90;;;;;;5062433;28;20228;-81
2021/04/04 02:15:31;;;;;;;11.33;5.23;;;1.30;99.90;;;;;;5064088;28;20113;-80
2021/04/04 02:17:57;;;;;;;10.90;5.07;;;1.30;99.90;;;;;;5064294;28;20036;-81
2021/04/04 02:20:25;;;;;;;12.50;5.23;;;1.20;99.90;;;;;;5055884;28;20445;-80
2021/04/04 02:22:52;;;;;;;11.70;5.23;;;1.10;99.90;;;;;;5056356;28;20437;-81
2021/04/04 02:25:18;;;;;;;13.20;5.30;;;1.20;99.90;;;;;;5055146;28;20352;-81
2021/04/04 02:27:45;;;;;;;10.60;5.10;;;1.30;99.90;;;;;;5054189;28;20037;-79
2021/04/04 02:30:14;;;;;;;11.00;5.03;;;1.20;99.90;;;;;;5059709;28;20036;-81
2021/04/04 02:32:45;;;;;;;13.05;6.25;;;1.20;99.90;;;;;;5063868;28;20054;-80
2021/04/04 02:35:14;;;;;;;11.37;5.50;;;1.30;99.90;;;;;;5058667;28;20432;-80
2021/04/04 02:37:41;;;;;;;9.52;5.13;;;1.20;99.90;;;;;;5062543;28;20072;-80
2021/04/04 02:40:11;;;;;;;9.17;5.17;;;1.10;99.90;;;;;;5059437;28;20036;-80
2021/04/04 02:42:38;;;;;;;13.07;5.87;;;1.10;99.90;;;;;;5062863;28;20032;-81
2021/04/04 02:45:06;;;;;;;11.50;4.77;;;1.20;99.90;;;;;;5062604;28;20055;-82
2021/04/04 02:47:47;;;;;;;9.73;4.80;;;1.20;99.90;;;;;;5061362;28;20036;-81
2021/04/04 02:50:14;;;;;;;8.77;5.10;;;1.20;99.90;;;;;;5065879;28;20387;-79
2021/04/04 02:52:43;;;;;;;9.23;5.17;;;1.20;99.90;;;;;;5060366;28;20036;-79
2021/04/04 02:55:11;;;;;;;10.50;5.17;;;1.30;99.90;;;;;;5063091;28;20033;-81
2021/04/04 02:57:37;;;;;;;15.17;5.53;;;1.30;99.90;;;;;;5062153;28;20518;-80
2021/04/04 03:00:07;;;;;;;13.00;6.20;;;1.30;99.90;;;;;;5067189;28;20028;-80
2021/04/04 03:02:35;;;;;;;10.15;4.68;;;1.30;99.90;;;;;;5056429;28;20083;-81
2021/04/04 03:05:02;;;;;;;9.97;5.27;;;1.30;99.90;;;;;;5060572;28;20059;-81
2021/04/04 03:07:28;;;;;;;12.53;5.20;;;1.30;99.90;;;;;;5065919;28;20114;-81
2021/04/04 03:09:54;;;;;;;12.17;5.00;;;1.30;99.90;;;;;;5064651;28;20434;-81
2021/04/04 03:12:22;;;;;;;11.93;5.37;;;1.20;99.90;;;;;;5054777;28;20028;-79
2021/04/04 03:14:49;;;;;;;10.77;5.47;;;1.20;99.90;;;;;;5054672;28;20059;-79
2021/04/04 03:17:16;;;;;;;9.47;5.07;;;1.00;99.90;;;;;;5078244;28;20060;-80
2021/04/04 03:19:44;;;;;;;12.50;5.13;;;0.90;99.90;;;;;;5065618;28;20024;-80
2021/04/04 03:22:10;;;;;;;9.37;5.00;;;0.90;99.90;;;;;;5063453;28;20029;-81
2021/04/04 03:24:38;;;;;;;9.93;5.47;;;0.80;99.90;;;;;;5068427;28;20054;-79
2021/04/04 03:27:04;;;;;;;11.40;5.30;;;0.80;99.90;;;;;;5063231;28;20029;-83
2021/04/04 03:29:30;;;;;;;9.13;5.10;;;0.70;99.90;;;;;;5067955;28;20040;-81
2021/04/04 03:31:58;;;;;;;11.77;4.87;;;0.60;99.90;;;;;;5068456;28;20173;-80
2021/04/04 03:34:24;;;;;;;9.77;5.17;;;0.60;99.90;;;;;;5064518;28;20125;-78
2021/04/04 03:36:52;;;;;;;11.73;5.83;;;0.70;99.90;;;;;;5063196;28;20031;-79
2021/04/04 03:39:17;;;;;;;10.17;5.50;;;0.70;99.90;;;;;;5063718;28;20036;-79
2021/04/04 03:41:44;;;;;;;11.70;6.00;;;0.70;99.90;;;;;;5055933;28;20040;-79
2021/04/04 03:44:11;;;;;;;11.27;5.30;;;0.70;99.90;;;;;;5060874;28;20509;-79
2021/04/04 03:46:39;;;;;;;10.27;5.13;;;0.80;99.90;;;;;;5058997;28;20048;-81
2021/04/04 03:49:07;;;;;;;11.07;5.60;;;0.80;99.90;;;;;;5053287;28;20040;-80
2021/04/04 03:51:33;;;;;;;11.73;5.23;;;0.80;99.90;;;;;;5062486;28;20027;-79
2021/04/04 03:53:59;;;;;;;11.63;5.80;;;0.80;99.90;;;;;;5062575;28;20575;-77
2021/04/04 03:56:32;;;;;;;11.50;5.53;;;0.80;99.90;;;;;;5057964;28;20020;-79
2021/04/04 03:59:06;;;;;;;11.30;6.10;;;0.90;99.90;;;;;;5059610;28;20072;-80
2021/04/04 04:01:34;;;;;;;11.60;6.17;;;0.90;99.90;;;;;;5054667;28;20029;-79
2021/04/04 04:04:01;;;;;;;12.30;5.47;;;1.00;99.90;;;;;;5061003;28;20056;-79
2021/04/04 04:06:29;;;;;;;11.27;5.47;;;1.00;99.90;;;;;;5068506;28;20858;-79
2021/04/04 04:08:56;;;;;;;14.07;5.40;;;1.00;99.90;;;;;;5058058;28;20078;-78
2021/04/04 04:11:23;;;;;;;12.63;5.43;;;1.00;99.90;;;;;;5061205;28;20033;-79
2021/04/04 04:13:49;;;;;;;12.47;5.60;;;1.00;99.90;;;;;;5059703;28;20511;-79
2021/04/04 04:16:16;;;;;;;10.20;5.47;;;0.90;99.90;;;;;;5056440;28;20546;-81
2021/04/04 04:18:45;;;;;;;11.17;5.00;;;0.80;99.90;;;;;;5056715;28;20037;-78
2021/04/04 04:21:15;;;;;;;10.40;5.10;;;0.70;99.90;;;;;;5053145;28;20483;-79
2021/04/04 04:23:41;;;;;;;9.03;5.23;;;0.70;99.90;;;;;;5059980;28;20880;-80
2021/04/04 04:26:13;;;;;;;11.57;5.97;;;0.70;99.90;;;;;;5058358;28;20033;-79
2021/04/04 04:28:40;;;;;;;11.33;5.57;;;0.70;99.90;;;;;;5060855;28;20075;-79
2021/04/04 04:31:09;;;;;;;8.67;5.10;;;0.60;99.90;;;;;;5052551;28;20108;-79
2021/04/04 04:33:35;;;;;;;9.77;4.97;;;0.50;99.90;;;;;;5058127;28;20116;-81
2021/04/04 04:36:01;;;;;;;9.93;4.67;;;0.50;99.90;;;;;;5066538;28;20036;-79
2021/04/04 04:38:29;;;;;;;9.83;4.80;;;0.50;99.90;;;;;;5056920;28;20495;-77
2021/04/04 04:40:56;;;;;;;8.13;4.53;;;0.50;99.90;;;;;;5064635;28;20051;-77
2021/04/04 04:43:22;;;;;;;9.47;4.83;;;0.50;99.90;;;;;;5064622;28;20032;-79
2021/04/04 04:45:48;;;;;;;11.43;5.80;;;0.50;99.90;;;;;;5065021;28;20036;-79
2021/04/04 04:48:14;;;;;;;12.30;4.83;;;0.50;99.90;;;;;;5056930;28;20100;-79
2021/04/04 04:50:42;;;;;;;12.53;5.13;;;0.50;99.90;;;;;;5058744;28;20044;-79
2021/04/04 04:53:09;;;;;;;13.40;5.83;;;0.50;99.90;;;;;;5061544;28;20033;-79
2021/04/04 04:55:35;;;;;;;10.67;4.70;;;0.50;99.90;;;;;;5060553;28;20020;-78
2021/04/04 04:58:04;;;;;;;10.03;5.30;;;0.60;99.90;;;;;;5062937;28;20044;-78
2021/04/04 05:00:31;;;;;;;12.00;5.55;;;0.60;99.90;;;;;;5059680;28;20127;-77
2021/04/04 05:02:57;;;;;;;10.57;5.17;;;0.60;99.90;;;;;;5060870;28;20029;-78
2021/04/04 05:05:23;;;;;;;8.87;4.93;;;0.60;99.90;;;;;;5060688;28;20053;-78
2021/04/04 05:07:49;;;;;;;9.57;5.17;;;0.70;99.90;;;;;;5065162;28;20034;-80
2021/04/04 05:10:16;;;;;;;13.50;5.40;;;0.70;99.90;;;;;;5059172;28;20395;-78
2021/04/04 05:12:48;;;;;;;13.00;5.23;;;0.70;99.90;;;;;;5063467;28;20071;-80
2021/04/04 05:15:17;;;;;;;11.80;5.00;;;0.80;99.90;;;;;;5065321;28;20040;-79
2021/04/04 05:17:43;;;;;;;9.35;5.30;;;0.80;99.90;;;;;;5059626;28;20048;-79
2021/04/04 05:20:09;;;;;;;11.33;4.83;;;0.90;99.90;;;;;;5062224;28;20112;-78
2021/04/04 05:22:37;;;;;;;9.87;4.80;;;0.90;99.90;;;;;;5058874;28;20055;-78
2021/04/04 05:25:04;;;;;;;11.27;5.37;;;0.80;99.90;;;;;;5061057;28;20468;-78
2021/04/04 05:27:29;;;;;;;11.00;4.90;;;0.90;99.90;;;;;;5052557;28;20100;-77
2021/04/04 05:30:00;;;;;;;9.93;5.10;;;0.90;99.90;;;;;;5060366;28;20099;-79
2021/04/04 05:32:26;;;;;;;9.57;4.70;;;0.80;99.90;;;;;;5061636;28;20056;-78
2021/04/04 05:34:52;;;;;;;11.93;5.73;;;0.90;99.90;;;;;;5060830;28;20055;-78
2021/04/04 05:37:18;;;;;;;11.73;5.30;;;0.80;99.90;;;;;;5061368;28;20041;-80
2021/04/04 05:39:43;;;;;;;14.03;5.60;;;1.10;99.90;;;;;;5062230;28;20035;-79
2021/04/04 05:42:11;;;;;;;10.73;5.10;;;1.80;99.90;;;;;;5061868;28;20041;-80
2021/04/04 05:45:03;;;;;;;9.40;5.23;;;2.10;99.90;;;;;;5065002;28;20432;-80
2021/04/04 05:47:42;;;;;;;8.87;4.90;;;2.30;99.90;;;;;;5069847;28;20025;-78
2021/04/04 05:50:29;;;;;;;9.02;5.32;;;2.30;99.90;;;;;;5071260;28;20441;-78
2021/04/04 05:53:02;;;;;;;9.87;5.07;;;2.20;99.90;;;;;;5058093;28;20547;-77
2021/04/04 05:55:57;;;;;;;13.00;5.13;;;2.40;99.90;;;;;;5058382;28;20364;-79
2021/04/04 05:58:31;;;;;;;8.90;4.78;;;3.10;99.90;;;;;;5059649;28;20449;-78
2021/04/04 06:01:02;;;;;;;14.43;5.13;;;3.40;99.90;;;;;;5075648;28;20028;-79
2021/04/04 06:03:30;;;;;;;11.73;5.50;;;4.10;99.90;;;;;;5063476;28;20032;-79
2021/04/04 06:06:21;;;;;;;10.80;5.50;;;4.20;99.90;;;;;;5070357;28;20029;-78
2021/04/04 06:09:19;;;;;;;11.35;5.10;;;4.70;99.90;;;;;;5078778;28;20036;-80
2021/04/04 06:12:19;;;;;;;10.07;5.35;;;5.30;99.90;;;;;;5061951;28;20075;-79
2021/04/04 06:15:00;;;;;;;9.32;5.40;;;5.90;99.90;;;;;;5056844;28;20024;-79
2021/04/04 06:17:34;;;;;;;10.95;5.57;;;6.10;99.90;;;;;;5056629;28;20040;-79
2021/04/04 06:20:13;;;;;;;10.15;5.18;;;6.50;99.90;;;;;;5064036;28;20033;-79
2021/04/04 06:23:09;;;;;;;8.48;5.13;;;7.40;99.90;;;;;;5066369;28;20490;-80
2021/04/04 06:25:53;;;;;;;11.35;4.60;;;7.90;99.90;;;;;;5060500;28;20032;-79
2021/04/04 06:28:42;;;;;;;11.70;5.45;;;8.30;99.90;;;;;;5064429;28;20402;-80
2021/04/04 06:31:33;;;;;;;11.82;5.70;;;7.70;99.90;;;;;;5068609;28;20016;-78
2021/04/04 06:34:05;;;;;;;8.93;5.32;;;7.10;99.90;;;;;;5062738;28;20115;-79
2021/04/04 06:36:41;;;;;;;10.55;5.32;;;6.60;99.90;;;;;;5065137;28;20035;-79
2021/04/04 06:39:20;;;;;;;12.82;6.28;;;5.80;99.90;;;;;;5057967;28;20041;-79
2021/04/04 06:41:48;;;;;;;10.20;5.93;;;5.20;99.90;;;;;;5059075;28;20035;-79
2021/04/04 06:44:21;;;;;;;8.45;5.45;;;4.70;99.90;;;;;;5059759;28;20036;-78
2021/04/04 06:47:38;;;;;;;11.68;5.88;;;4.50;99.90;;;;;;5060793;28;20423;-78
2021/04/04 06:50:16;;;;;;;12.13;6.05;;;4.50;99.90;;;;;;5055000;28;20044;-79
2021/04/04 06:53:01;;;;;;;10.30;5.40;;;4.60;99.90;;;;;;5059986;28;20078;-78
2021/04/04 06:55:57;;;;;;;11.20;6.45;;;4.70;99.90;;;;;;5066117;28;20040;-78
2021/04/04 06:58:50;;;;;;;11.77;5.47;;;4.60;99.90;;;;;;5059857;28;20063;-78
2021/04/04 07:01:43;;;;;;;11.73;5.82;;;4.60;99.90;;;;;;5062876;28;20045;-78
2021/04/04 07:04:22;;;;;;;9.52;5.82;;;4.60;99.90;;;;;;5061696;28;20057;-79
2021/04/04 07:06:56;;;;;;;11.85;6.00;;;4.60;99.90;;;;;;5058674;28;20357;-78
2021/04/04 07:10:03;;;;;;;13.02;5.78;;;4.70;99.90;;;;;;5069381;28;20500;-78
2021/04/04 07:13:00;;;;;;;10.38;5.90;;;4.60;99.90;;;;;;5062766;28;20021;-80
2021/04/04 07:16:10;;;;;;;9.40;5.55;;;4.50;99.90;;;;;;5057833;28;20040;-79
2021/04/04 07:19:19;;;;;;;10.13;5.55;;;4.60;99.90;;;;;;5066162;28;20503;-79
2021/04/04 07:21:55;;;;;;;11.15;5.65;;;4.90;99.90;;;;;;5063681;28;20032;-78
2021/04/04 07:24:51;;;;;;;11.68;5.53;;;5.00;99.90;;;;;;5072798;28;20036;-79
2021/04/04 07:27:53;;;;;;;9.38;5.55;;;5.20;99.90;;;;;;5065477;28;20618;-77
2021/04/04 07:31:02;;;;;;;10.50;5.93;;;5.40;99.90;;;;;;5068448;28;21462;-79
2021/04/04 07:34:09;;;;;;;10.15;5.53;;;5.50;99.90;;;;;;4964224;28;20031;-79
2021/04/04 07:36:40;;;;;;;10.45;5.50;;;5.50;99.90;;;;;;4961269;28;20074;-78
2021/04/04 07:39:32;;;;;;;10.80;5.25;;;5.50;99.90;;;;;;4966371;28;20038;-78
2021/04/04 07:42:22;;;;;;;9.35;4.72;;;5.60;99.90;;;;;;4948541;28;20043;-78
2021/04/04 07:44:55;;;;;;;7.80;4.53;;;5.80;99.90;;;;;;4969678;28;20027;-79
2021/04/04 07:47:55;;;;;;;8.43;4.88;;;6.00;99.90;;;;;;4962056;28;20195;-79
2021/04/04 07:50:35;;;;;;;9.57;4.32;;;6.20;99.90;;;;;;4968518;28;20110;-79
2021/04/04 07:53:06;;;;;;;;;;;6.10;99.90;;;;;;4952404;28;20027;-81
2021/04/04 07:55:52;;;;;;;7.13;4.38;;;6.20;99.90;;;;;;4977431;28;19949;-84
2021/04/04 07:58:31;;;;;;;14.77;4.93;;;6.30;99.90;;;;;;4991558;28;20050;-82
2021/04/04 08:01:08;;;;;;;8.80;4.38;;;6.40;99.90;;;;;;4983371;28;20031;-90
2021/04/04 08:03:45;;;;;;;9.77;4.97;;;6.60;99.90;;;;;;4984825;28;20022;-93
2021/04/04 08:06:13;;;;;;;10.80;5.45;;;6.70;99.90;;;;;;4991130;28;20035;-82
2021/04/04 08:08:58;;;;;;;9.07;4.85;;;6.60;99.90;;;;;;5057414;28;20035;-82
2021/04/04 08:11:34;;;;;;;11.38;5.15;;;6.80;99.90;;;;;;5058371;28;20036;-83
2021/04/04 08:14:06;;;;;;;10.05;4.93;;;7.10;99.90;;;;;;5062786;28;20102;-83
2021/04/04 08:16:59;;;;;;;8.55;4.55;;;7.00;99.90;;;;;;5060627;28;20096;-82
2021/04/04 08:19:26;;;;;;;7.90;3.42;;;7.20;99.90;;;;;;5044839;28;20091;-87
2021/04/04 08:22:02;;;;;;;5.85;3.40;;;7.50;99.90;;;;;;5052642;28;20044;-86
2021/04/04 08:24:37;;;;;;;6.20;3.30;;;7.60;99.90;;;;;;5035012;28;20045;-82
2021/04/04 08:27:40;;;;;;;5.75;3.28;;;7.60;99.90;;;;;;5040084;28;20066;-82
2021/04/04 08:30:18;;;;;;;6.72;3.15;;;7.70;99.90;;;;;;5009621;28;20118;-84
2021/04/04 08:32:55;;;;;;;9.55;3.03;;;7.70;99.90;;;;;;4994754;28;20021;-81
2021/04/04 08:35:27;;;;;;;7.22;2.53;;;7.80;99.90;;;;;;5011637;28;20072;-79
2021/04/04 08:37:56;;;;;;;4.50;2.55;;;8.00;99.90;;;;;;4995440;28;20169;-78
2021/04/04 08:40:23;;;;;;;5.10;2.00;;;8.10;99.90;;;;;;4999006;28;20077;-81
2021/04/04 08:42:51;;;;;;;4.55;1.70;;;8.20;99.90;;;;;;4989661;28;20038;-79
2021/04/04 08:45:39;;;;;;;3.47;1.58;;;8.30;99.90;;;;;;5000483;28;20080;-83
2021/04/04 08:48:05;;;;;;;4.45;2.05;;;8.30;99.90;;;;;;4978911;28;20083;-83
2021/04/04 08:50:33;;;;;;;4.88;2.40;;;8.50;99.90;;;;;;4991236;28;20046;-83
2021/04/04 08:53:17;;;;;;;8.27;2.35;;;8.10;99.90;;;;;;5005026;28;20080;-85
2021/04/04 08:55:46;;;;;;;4.75;2.00;;;8.20;99.90;;;;;;5002802;28;20221;-86
2021/04/04 08:58:16;;;;;;;6.72;2.80;;;8.20;99.90;;;;;;4994115;28;20453;-84
2021/04/04 09:00:42;;;;;;;4.63;2.10;;;8.50;99.90;;;;;;5016248;28;20060;-82
2021/04/04 09:03:17;;;;;;;5.18;2.42;;;8.80;99.90;;;;;;4996313;28;20093;-80
2021/04/04 09:05:45;;;;;;;6.72;2.53;;;9.00;99.90;;;;;;5000581;28;20049;-86
2021/04/04 09:08:14;;;;;;;11.63;2.80;;;9.20;99.50;;;;;;5054801;28;20028;-84
2021/04/04 09:10:41;;;;;;;4.53;2.35;;;9.20;99.20;;;;;;5066932;28;20028;-84
2021/04/04 09:13:17;;;;;;;5.00;2.50;;;9.10;98.90;;;;;;5048730;28;20461;-84
2021/04/04 09:15:56;;;;;;;4.70;2.60;;;8.90;99.00;;;;;;5055630;28;20025;-82
2021/04/04 09:18:24;;;;;;;8.27;2.78;;;9.00;98.30;;;;;;5073116;28;20040;-85
2021/04/04 09:20:51;;;;;;;4.78;2.30;;;8.80;98.40;;;;;;5070026;28;20024;-84
2021/04/04 09:23:21;;;;;;;4.32;2.67;;;8.90;98.30;;;;;;5072180;28;20032;-83
2021/04/04 09:25:56;;;;;;;5.07;2.10;;;8.20;97.60;;;;;;5070414;28;20039;-85
2021/04/04 09:28:25;;;;;;;6.90;2.65;;;7.90;98.00;;;;;;5068830;28;20029;-85
2021/04/04 09:30:51;;;;;;;6.13;2.50;;;8.00;98.40;;;;;;5071350;28;20035;-85
2021/04/04 09:33:28;;;;;;;4.97;2.80;;;8.00;98.70;;;;;;5070567;28;20389;-85
2021/04/04 09:35:59;;;;;;;6.07;2.88;;;8.20;99.30;;;;;;5070823;28;20408;-86
2021/04/04 09:38:32;;;;;;;8.07;2.60;;;8.20;98.90;;;;;;5071877;28;20052;-85
2021/04/04 09:40:59;;;;;;;6.60;3.00;;;8.00;98.80;;;;;;5073640;28;20028;-85
2021/04/04 09:43:26;;;;;;;5.07;2.78;;;7.70;98.90;;;;;;5073320;28;20114;-84
2021/04/04 09:46:05;;;;;;;8.73;2.63;;;7.70;99.40;;;;;;5075950;28;20444;-83
2021/04/04 09:48:31;;;;;;;5.75;2.80;;;7.70;99.60;;;;;;5072644;28;20116;-85
2021/04/04 09:51:15;;;;;;;5.93;3.40;;;7.80;99.40;;;;;;5068175;28;20117;-85
2021/04/04 09:53:46;;;;;;;5.57;2.90;;;7.80;99.20;;;;;;5073401;28;20051;-83
2021/04/04 09:56:14;;;;;;;5.50;2.70;;;7.60;98.40;;;;;;5072166;28;20472;-84
2021/04/04 09:58:44;;;;;;;8.00;3.10;;;7.60;98.90;;;;;;5070780;28;20058;-84
2021/04/04 10:01:15;;;;;;;8.60;3.00;;;7.60;98.90;;;;;;5072266;28;20037;-85
2021/04/04 10:03:41;;;;;;;8.82;2.78;;;7.80;99.10;;;;;;5083975;28;20060;-88
2021/04/04 10:06:11;;;;;;;5.35;2.85;;;7.90;99.30;;;;;;5091867;28;20177;-86
2021/04/04 10:08:37;;;;;;;4.43;2.60;;;8.20;98.00;;;;;;5070486;28;20036;-86
2021/04/04 10:11:14;;;;;;;4.57;2.70;;;8.20;97.40;;;;;;5069585;28;20492;-87
2021/04/04 10:13:40;;;;;;;6.50;3.25;;;8.50;97.50;;;;;;5067058;28;20113;-87
2021/04/04 10:16:22;;;;;;;5.55;2.38;;;8.70;97.30;;;;;;5069393;28;20116;-85
2021/04/04 10:19:06;;;;;;;4.20;2.40;;;8.90;96.80;;;;;;5066986;28;20438;-87
2021/04/04 10:21:34;;;;;;;7.60;3.03;;;9.10;96.10;;;;;;5051851;28;20488;-84
2021/04/04 10:24:20;;;;;;;6.50;3.00;;;9.30;96.50;;;;;;5067602;28;20068;-85
2021/04/04 10:26:45;;;;;;;4.25;2.80;;;9.50;95.40;;;;;;5067540;28;20028;-86
2021/04/04 10:29:19;;;;;;;4.32;2.38;;;9.50;95.10;;;;;;5071712;28;20391;-84
2021/04/04 10:31:48;;;;;;;6.65;3.17;;;9.40;96.30;;;;;;5068306;28;20151;-87
2021/04/04 10:34:14;;;;;;;6.28;2.97;;;9.30;95.20;;;;;;5068756;28;20028;-84
2021/04/04 10:36:39;;;;;;;7.38;2.95;;;9.30;95.90;;;;;;5063796;28;20037;-85
2021/04/04 10:39:20;;;;;;;6.40;3.22;;;9.50;95.80;;;;;;5052760;28;20123;-85
2021/04/04 10:41:46;;;;;;;8.10;2.72;;;9.50;94.50;;;;;;5069995;28;20103;-83
2021/04/04 10:44:24;;;;;;;5.95;3.00;;;9.70;95.10;;;;;;5060688;28;20040;-83
2021/04/04 10:46:50;;;;;;;5.10;2.75;;;9.40;95.10;;;;;;5062672;28;20040;-84
2021/04/04 10:49:16;;;;;;;7.38;2.78;;;9.30;95.40;;;;;;5053056;28;20522;-82
2021/04/04 10:51:43;;;;;;;5.82;2.92;;;9.20;95.30;;;;;;5070275;28;20029;-86
2021/04/04 10:54:09;;;;;;;6.03;3.00;;;9.20;94.80;;;;;;5070991;28;20059;-86
2021/04/04 10:56:36;;;;;;;6.07;2.42;;;9.10;95.30;;;;;;5063631;28;20056;-84
2021/04/04 10:59:03;;;;;;;7.65;2.70;;;9.30;95.40;;;;;;5072249;28;20091;-84
2021/04/04 11:01:33;;;;;;;5.80;2.80;;;9.40;95.90;;;;;;5057141;28;20605;-86
2021/04/04 11:04:00;;;;;;;5.93;2.67;;;9.40;95.80;;;;;;5066339;28;20055;-85
2021/04/04 11:06:27;;;;;;;5.70;2.63;;;9.40;96.10;;;;;;5072156;28;20113;-86
2021/04/04 11:08:53;;;;;;;5.72;2.70;;;9.70;95.30;;;;;;5080699;28;20081;-86
2021/04/04 11:11:19;;;;;;;5.18;2.85;;;9.70;94.80;;;;;;5079089;28;20115;-84
2021/04/04 11:13:49;;;;;;;5.35;2.70;;;9.40;94.20;;;;;;5065679;28;20166;-84
2021/04/04 11:16:17;;;;;;;5.22;3.00;;;9.40;95.00;;;;;;5060108;28;20063;-85
2021/04/04 11:18:46;;;;;;;6.05;2.55;;;9.50;93.90;;;;;;5051868;28;20544;-84
2021/04/04 11:21:42;;;;;;;5.13;2.97;;;9.50;94.60;;;;;;5070252;28;20422;-83
2021/04/04 11:24:15;;;;;;;4.40;2.45;;;9.50;93.70;;;;;;5050025;28;20116;-85
2021/04/04 11:26:57;;;;;;;6.47;2.50;;;9.70;93.70;;;;;;5050644;28;20025;-82
2021/04/04 11:29:23;;;;;;;5.22;2.83;;;9.60;93.70;;;;;;5052851;28;20175;-84
2021/04/04 11:31:51;;;;;;;5.65;2.80;;;9.70;94.10;;;;;;5049023;28;20025;-84
2021/04/04 11:34:40;;;;;;;7.68;2.50;;;9.70;93.30;;;;;;5032068;28;20033;-84
2021/04/04 11:37:11;;;;;;;4.25;2.70;;;9.70;93.90;;;;;;5048358;28;20049;-85
2021/04/04 11:39:37;;;;;;;5.93;2.90;;;9.40;92.70;;;;;;5048618;28;20494;-85
2021/04/04 11:42:04;;;;;;;4.05;2.38;;;9.40;93.20;;;;;;5047548;28;20052;-84
2021/04/04 11:44:31;;;;;;;5.72;3.30;;;9.40;93.20;;;;;;5048076;28;20048;-84
2021/04/04 11:47:01;;;;;;;4.85;2.88;;;9.50;92.90;;;;;;5047517;28;20401;-82
2021/04/04 11:49:32;;;;;;;4.93;2.70;;;9.70;93.10;;;;;;5046027;28;20029;-83
2021/04/04 11:52:11;;;;;;;3.08;1.70;;;9.90;92.80;;;;;;5047385;28;20025;-82
2021/04/04 11:54:45;;;;;;;5.50;2.53;;;9.90;92.40;;;;;;5047757;28;20185;-82
2021/04/04 11:57:11;;;;;;;5.13;3.03;;;9.70;92.50;;;;;;5047403;28;20029;-82
2021/04/04 11:59:37;;;;;;;5.63;2.75;;;9.40;92.90;;;;;;5034250;28;20045;-84
2021/04/04 12:02:03;;;;;;;5.60;2.88;;;9.80;94.40;;;;;;5067551;28;20025;-86
2021/04/04 12:04:43;;;;;;;5.68;2.63;;;9.90;93.00;;;;;;5049856;28;20049;-84
2021/04/04 12:07:10;;;;;;;4.60;3.08;;;9.90;92.80;;;;;;5067508;28;20036;-83
2021/04/04 12:09:37;;;;;;;5.30;2.92;;;9.90;91.70;;;;;;5058332;28;20172;-83
2021/04/04 12:12:04;;;;;;;6.32;2.92;;;9.60;92.10;;;;;;5071767;28;20028;-85
2021/04/04 12:14:30;;;;;;;5.20;2.97;;;9.90;92.40;;;;;;5080914;28;20031;-84
2021/04/04 12:16:56;;;;;;;4.75;2.80;;;10.20;92.30;;;;;;5063734;28;20112;-81
2021/04/04 12:19:28;;;;;;;4.68;3.17;;;10.10;91.60;;;;;;5059530;28;20029;-83
2021/04/04 12:21:55;;;;;;;3.75;2.55;;;10.00;91.30;;;;;;5059496;28;20035;-84
2021/04/04 12:24:38;;;;;;;4.88;2.63;;;9.80;91.70;;;;;;5062526;28;20106;-83
2021/04/04 12:27:04;;;;;;;4.85;2.50;;;9.70;91.40;;;;;;5069521;28;20427;-83
2021/04/04 12:29:53;;;;;;;5.82;2.40;;;9.70;91.00;;;;;;5061310;28;20024;-83
2021/04/04 12:32:22;;;;;;;9.88;3.20;;;9.70;91.70;;;;;;5061075;28;20880;-82
2021/04/04 12:34:54;;;;;;;5.65;3.28;;;9.90;92.00;;;;;;5058076;28;20048;-84
2021/04/04 12:37:22;;;;;;;5.65;3.47;;;9.70;91.10;;;;;;5069394;28;20039;-84
2021/04/04 12:39:49;;;;;;;5.05;2.92;;;9.30;91.30;;;;;;5061046;28;20082;-84
2021/04/04 12:42:18;;;;;;;8.93;2.88;;;9.40;92.40;;;;;;5050229;28;20029;-83
2021/04/04 12:44:47;;;;;;;4.85;2.70;;;9.80;92.00;;;;;;5052063;28;20107;-83
2021/04/04 12:47:17;;;;;;;4.97;2.90;;;10.10;91.50;;;;;;5069740;28;20476;-83
2021/04/04 12:49:51;;;;;;;5.90;2.92;;;10.20;91.00;;;;;;5060572;28;20055;-84
2021/04/04 12:52:36;;;;;;;7.13;3.38;;;10.30;91.00;;;;;;5053213;28;20361;-84
2021/04/04 12:55:19;;;;;;;7.00;3.35;;;10.10;90.50;;;;;;5056007;28;20535;-83
2021/04/04 12:57:53;;;;;;;4.45;2.50;;;10.40;91.60;;;;;;5063580;28;20076;-83
2021/04/04 13:00:26;;;;;;;9.57;3.08;;;10.80;91.60;;;;;;5060535;28;20021;-83
2021/04/04 13:03:11;;;;;;;4.55;3.08;;;11.10;90.70;;;;;;5052937;28;20033;-83
2021/04/04 13:05:47;;;;;;;6.57;2.72;;;11.20;91.00;;;;;;5067365;28;20044;-83
2021/04/04 13:08:23;;;;;;;5.65;2.70;;;11.30;90.80;;;;;;5056808;28;20021;-84
2021/04/04 13:10:51;;;;;;;5.53;2.70;;;11.40;90.70;;;;;;5063224;28;20040;-83
2021/04/04 13:13:25;;;;;;;5.90;2.95;;;10.50;88.80;;;;;;5049529;28;20017;-83
2021/04/04 13:15:51;;;;;;;5.72;2.90;;;10.90;90.30;;;;;;5065948;28;20035;-85
2021/04/04 13:18:28;;;;;;;5.57;2.90;;;11.20;90.30;;;;;;5063158;28;20057;-83
2021/04/04 13:21:00;;;;;;;7.28;2.65;;;11.30;89.50;;;;;;5067238;28;20497;-83